createdAt,value
2023-08-14T00:00:24.585Z,99.92
2023-08-14T00:02:52.865Z,99.75
2023-08-14T00:05:20.858Z,100.00
2023-08-14T00:07:50.283Z,100.00
2023-08-14T00:10:18.338Z,99.72
2023-08-14T00:12:46.333Z,99.76
2023-08-14T00:15:15.370Z,99.94
2023-08-14T00:17:43.483Z,100.00
2023-08-14T00:20:12.679Z,100.00
2023-08-14T00:22:40.744Z,100.00
2023-08-14T00:25:11.666Z,100.00
2023-08-14T00:27:39.766Z,100.00
2023-08-14T00:30:08.719Z,100.00
2023-08-14T00:32:36.741Z,100.00
2023-08-14T00:35:05.401Z,99.86
2023-08-14T00:37:43.923Z,99.99
2023-08-14T00:40:14.953Z,99.95
2023-08-14T00:42:46.130Z,99.38
2023-08-14T00:45:14.281Z,98.80
2023-08-14T00:47:44.620Z,98.99
2023-08-14T00:50:13.385Z,99.14
2023-08-14T00:52:43.928Z,98.86
2023-08-14T00:55:17.685Z,98.78
2023-08-14T00:57:46.952Z,98.81
2023-08-14T01:00:16.610Z,98.79
2023-08-14T01:02:45.985Z,99.92
2023-08-14T01:05:14.312Z,99.53
2023-08-14T01:07:42.349Z,98.51
2023-08-14T01:10:12.544Z,98.52
2023-08-14T01:12:48.557Z,99.08
2023-08-14T01:15:20.931Z,99.41
2023-08-14T01:17:53.012Z,99.43
2023-08-14T01:20:22.904Z,99.21
2023-08-14T01:23:00.597Z,99.70
2023-08-14T01:25:32.799Z,100.00
2023-08-14T01:28:01.349Z,100.00
2023-08-14T01:30:29.474Z,99.23
2023-08-14T01:32:57.721Z,100.00
2023-08-14T01:35:28.537Z,100.00
2023-08-14T01:38:05.330Z,100.00
2023-08-14T01:40:43.670Z,100.00
2023-08-14T01:43:17.028Z,99.73
2023-08-14T01:45:45.247Z,99.97
2023-08-14T01:48:15.598Z,100.00
2023-08-14T01:50:45.250Z,100.00
2023-08-14T01:53:13.323Z,100.00
2023-08-14T01:55:42.974Z,100.00
2023-08-14T01:58:10.975Z,100.00
2023-08-14T02:00:39.239Z,100.00
2023-08-14T02:03:08.520Z,100.00
2023-08-14T02:05:36.881Z,100.00
2023-08-14T02:08:05.510Z,100.00
2023-08-14T02:10:33.694Z,100.00
2023-08-14T02:13:03.132Z,100.00
2023-08-14T02:15:31.120Z,100.00
2023-08-14T02:17:59.856Z,100.00
2023-08-14T02:20:28.005Z,100.00
2023-08-14T02:22:55.987Z,100.00
2023-08-14T02:25:24.019Z,100.00
2023-08-14T02:27:52.065Z,100.00
2023-08-14T02:30:21.565Z,100.00
2023-08-14T02:32:49.807Z,100.00
2023-08-14T02:35:18.122Z,100.00
2023-08-14T02:37:46.249Z,100.00
2023-08-14T02:40:14.435Z,100.00
2023-08-14T02:42:42.458Z,100.00
2023-08-14T02:45:11.378Z,100.00
2023-08-14T02:47:41.141Z,100.00
2023-08-14T02:50:09.724Z,100.00
2023-08-14T02:52:37.641Z,100.00
2023-08-14T02:55:06.533Z,100.00
2023-08-14T02:57:34.656Z,100.00
2023-08-14T03:00:02.809Z,99.65
2023-08-14T03:02:31.002Z,99.29
2023-08-14T03:05:00.510Z,99.28
2023-08-14T03:07:28.777Z,98.91
2023-08-14T03:09:57.655Z,99.45
2023-08-14T03:12:25.732Z,99.51
2023-08-14T03:14:53.676Z,99.21
2023-08-14T03:17:21.760Z,99.22
2023-08-14T03:19:49.797Z,98.98
2023-08-14T03:22:19.739Z,99.13
2023-08-14T03:24:47.971Z,99.52
2023-08-14T03:27:16.197Z,99.62
2023-08-14T03:29:44.232Z,99.98
2023-08-14T03:32:12.314Z,100.00
2023-08-14T03:34:40.405Z,99.88
2023-08-14T03:37:10.192Z,100.00
2023-08-14T03:39:41.832Z,100.00
2023-08-14T03:42:09.891Z,100.00
2023-08-14T03:44:38.014Z,100.00
2023-08-14T03:47:06.199Z,100.00
2023-08-14T03:49:34.127Z,100.00
2023-08-14T03:52:02.120Z,100.00
2023-08-14T03:54:30.064Z,100.00
2023-08-14T03:56:59.751Z,100.00
2023-08-14T03:59:27.723Z,100.00
2023-08-14T04:01:55.801Z,100.00
2023-08-14T04:04:23.870Z,100.00
2023-08-14T04:06:52.008Z,100.00
2023-08-14T04:09:20.148Z,100.00
2023-08-14T04:11:48.301Z,100.00
2023-08-14T04:14:17.859Z,100.00
2023-08-14T04:16:46.799Z,100.00
2023-08-14T04:19:16.547Z,100.00
2023-08-14T04:21:45.164Z,100.00
2023-08-14T04:24:13.568Z,100.00
2023-08-14T04:26:42.021Z,100.00
2023-08-14T04:29:11.653Z,100.00
2023-08-14T04:31:42.413Z,100.00
2023-08-14T04:34:11.802Z,100.00
2023-08-14T04:36:40.155Z,100.00
2023-08-14T04:39:08.836Z,100.00
2023-08-14T04:41:37.186Z,100.00
2023-08-14T04:44:05.798Z,100.00
2023-08-14T04:46:48.991Z,100.00
2023-08-14T04:49:23.254Z,100.00
2023-08-14T04:51:51.239Z,100.00
2023-08-14T04:54:19.273Z,100.00
2023-08-14T04:56:47.462Z,100.00
2023-08-14T04:59:15.422Z,100.00
2023-08-14T05:01:43.900Z,100.00
2023-08-14T05:04:12.111Z,100.00
2023-08-14T05:06:41.878Z,100.00
2023-08-14T05:09:24.056Z,100.00
2023-08-14T05:11:54.277Z,100.00
2023-08-14T05:14:22.248Z,100.00
2023-08-14T05:16:50.268Z,100.00
2023-08-14T05:19:18.436Z,100.00
2023-08-14T05:21:48.485Z,100.00
2023-08-14T05:24:17.349Z,100.00
2023-08-14T05:26:45.680Z,100.00
2023-08-14T05:29:13.626Z,100.00
2023-08-14T05:31:41.713Z,100.00
2023-08-14T05:34:09.770Z,100.00
2023-08-14T05:36:37.916Z,100.00
2023-08-14T05:39:09.779Z,100.00
2023-08-14T05:41:37.841Z,100.00
2023-08-14T05:44:06.828Z,100.00
2023-08-14T05:46:34.969Z,100.00
2023-08-14T05:49:05.278Z,100.00
2023-08-14T05:51:33.551Z,100.00
2023-08-14T05:54:01.579Z,100.00
2023-08-14T05:56:31.003Z,100.00
2023-08-14T05:58:59.065Z,100.00
2023-08-14T06:01:27.751Z,100.00
2023-08-14T06:03:56.188Z,100.00
2023-08-14T06:06:24.606Z,100.00
2023-08-14T06:08:52.619Z,100.00
2023-08-14T06:11:20.737Z,100.00
2023-08-14T06:13:50.119Z,100.00
2023-08-14T06:16:18.200Z,100.00
2023-08-14T06:18:46.205Z,100.00
2023-08-14T06:21:14.207Z,99.81
2023-08-14T06:23:42.240Z,99.70
2023-08-14T06:26:10.655Z,99.33
2023-08-14T06:28:38.727Z,99.72
2023-08-14T06:31:08.516Z,99.56
2023-08-14T06:33:38.930Z,99.57
2023-08-14T06:36:08.098Z,99.74
2023-08-14T06:38:36.495Z,99.82
2023-08-14T06:41:04.637Z,99.98
2023-08-14T06:43:33.265Z,99.30
2023-08-14T06:46:02.281Z,99.35
2023-08-14T06:48:33.698Z,99.45
2023-08-14T06:51:01.746Z,99.54
2023-08-14T06:53:29.776Z,98.72
2023-08-14T06:55:57.886Z,98.86
2023-08-14T06:58:25.921Z,98.82
2023-08-14T07:00:54.818Z,98.48
2023-08-14T07:03:23.060Z,98.47
2023-08-14T07:05:52.875Z,98.21
2023-08-14T07:08:21.089Z,98.08
2023-08-14T07:10:49.446Z,97.34
2023-08-14T07:13:17.499Z,97.19
2023-08-14T07:15:48.646Z,96.72
2023-08-14T07:18:17.203Z,96.59
2023-08-14T07:20:46.366Z,96.88
2023-08-14T07:23:16.835Z,96.88
2023-08-14T07:25:45.120Z,96.72
2023-08-14T07:28:13.674Z,94.17
2023-08-14T07:30:41.892Z,92.56
2023-08-14T07:33:11.888Z,92.75
2023-08-14T07:35:40.273Z,92.09
2023-08-14T07:38:08.312Z,91.83
2023-08-14T07:40:37.676Z,90.29
2023-08-14T07:43:08.341Z,89.42
2023-08-14T07:45:37.135Z,88.58
2023-08-14T07:48:05.732Z,87.16
2023-08-14T07:50:33.823Z,85.38
2023-08-14T07:53:01.941Z,84.18
2023-08-14T07:55:29.996Z,83.39
2023-08-14T07:57:59.390Z,82.43
2023-08-14T08:00:27.699Z,81.31
2023-08-14T08:02:55.749Z,80.45
2023-08-14T08:05:23.906Z,79.62
2023-08-14T08:07:52.667Z,78.96
2023-08-14T08:10:21.242Z,78.01
2023-08-14T08:12:51.561Z,76.40
2023-08-14T08:15:21.437Z,74.63
2023-08-14T08:17:49.476Z,75.21
2023-08-14T08:20:17.808Z,75.37
2023-08-14T08:22:45.794Z,74.77
2023-08-14T08:25:14.265Z,73.77
2023-08-14T08:27:42.312Z,72.80
2023-08-14T08:30:11.246Z,72.75
2023-08-14T08:32:41.426Z,70.08
2023-08-14T08:35:10.228Z,70.42
2023-08-14T08:37:38.268Z,70.87
2023-08-14T08:40:08.108Z,70.20
2023-08-14T08:42:36.443Z,70.73
2023-08-14T08:45:07.018Z,70.97
2023-08-14T08:47:39.972Z,70.23
2023-08-14T08:50:10.988Z,70.55
2023-08-14T08:52:41.317Z,69.87
2023-08-14T08:55:10.683Z,69.76
2023-08-14T08:57:40.086Z,68.94
2023-08-14T09:00:09.356Z,67.69
2023-08-14T09:02:37.624Z,68.55
2023-08-14T09:05:06.359Z,68.69
2023-08-14T09:07:36.405Z,68.94
2023-08-14T09:10:04.727Z,67.65
2023-08-14T09:12:32.948Z,66.32
2023-08-14T09:15:06.654Z,65.15
2023-08-14T09:17:35.599Z,65.63
2023-08-14T09:20:11.813Z,65.80
2023-08-14T09:22:45.110Z,65.94
2023-08-14T09:25:13.974Z,65.82
2023-08-14T09:27:43.887Z,65.65
2023-08-14T09:30:14.075Z,65.54
2023-08-14T09:32:42.080Z,64.60
2023-08-14T09:35:10.506Z,63.19
2023-08-14T09:37:38.594Z,60.66
2023-08-14T09:40:14.354Z,60.37
2023-08-14T09:42:43.816Z,61.45
2023-08-14T09:45:13.428Z,60.62
2023-08-14T09:47:44.732Z,58.77
2023-08-14T09:50:15.167Z,58.55
2023-08-14T09:52:45.749Z,58.57
2023-08-14T09:55:16.691Z,59.15
2023-08-14T09:57:45.779Z,59.39
2023-08-14T10:00:14.757Z,58.76
2023-08-14T10:02:46.439Z,58.23
2023-08-14T10:05:15.269Z,57.94
2023-08-14T10:07:44.680Z,58.25
2023-08-14T10:10:15.001Z,56.97
2023-08-14T10:12:51.059Z,57.34
2023-08-14T10:15:23.817Z,57.57
2023-08-14T10:17:56.385Z,57.44
2023-08-14T10:20:25.645Z,55.47
2023-08-14T10:22:54.887Z,56.23
2023-08-14T10:25:24.482Z,57.25
2023-08-14T10:27:54.734Z,56.82
2023-08-14T10:30:25.019Z,57.84
2023-08-14T10:32:54.030Z,56.98
2023-08-14T10:35:24.088Z,57.33
2023-08-14T10:38:04.914Z,56.60
2023-08-14T10:40:37.256Z,57.25
2023-08-14T10:43:08.530Z,57.35
2023-08-14T10:45:36.589Z,57.13
2023-08-14T10:48:11.068Z,56.88
2023-08-14T10:50:40.261Z,57.66
2023-08-14T10:53:08.324Z,57.31
2023-08-14T10:55:41.708Z,58.19
2023-08-14T10:58:42.363Z,57.41
2023-08-14T11:01:11.968Z,56.94
2023-08-14T11:04:04.646Z,58.36
2023-08-14T11:07:09.913Z,57.84
2023-08-14T11:09:39.439Z,55.60
2023-08-14T11:12:09.444Z,55.46
2023-08-14T11:14:40.811Z,54.83
2023-08-14T11:17:10.743Z,54.34
2023-08-14T11:19:39.786Z,52.36
2023-08-14T11:22:33.491Z,54.20
2023-08-14T11:25:02.564Z,54.57
2023-08-14T11:27:38.057Z,56.26
2023-08-14T11:30:15.190Z,55.36
2023-08-14T11:33:51.396Z,56.22
2023-08-14T11:36:24.994Z,56.51
2023-08-14T11:38:58.288Z,57.37
2023-08-14T11:43:59.713Z,56.24
2023-08-14T11:46:29.614Z,56.41
2023-08-14T11:48:58.777Z,55.85
2023-08-14T11:51:27.490Z,55.42
2023-08-14T11:53:56.439Z,53.73
2023-08-14T11:56:25.089Z,52.10
2023-08-14T11:59:03.673Z,52.88
2023-08-14T12:01:39.531Z,54.99
2023-08-14T12:04:08.503Z,52.65
2023-08-14T12:06:37.004Z,53.22
2023-08-14T12:09:09.282Z,53.21
2023-08-14T12:11:38.842Z,53.43
2023-08-14T12:14:07.594Z,53.32
2023-08-14T12:16:41.921Z,51.00
2023-08-14T12:19:15.190Z,50.40
2023-08-14T12:21:43.409Z,50.16
2023-08-14T12:24:13.208Z,49.22
2023-08-14T12:26:44.854Z,50.87
2023-08-14T12:29:15.789Z,52.15
2023-08-14T12:31:45.797Z,52.52
2023-08-14T12:34:14.804Z,53.27
2023-08-14T12:36:43.099Z,54.99
2023-08-14T12:39:14.496Z,53.85
2023-08-14T12:41:42.906Z,54.95
2023-08-14T12:44:11.036Z,55.85
2023-08-14T12:46:39.377Z,54.73
2023-08-14T12:49:09.048Z,55.95
2023-08-14T12:51:37.219Z,57.72
2023-08-14T12:54:05.904Z,56.86
2023-08-14T12:56:34.405Z,56.67
2023-08-14T12:59:02.619Z,56.30
2023-08-14T13:01:30.864Z,56.64
2023-08-14T13:04:00.254Z,57.23
2023-08-14T13:06:30.791Z,58.25
2023-08-14T13:08:59.104Z,57.25
2023-08-14T13:11:27.619Z,57.91
2023-08-14T13:14:48.141Z,59.68
2023-08-14T13:17:16.310Z,61.52
2023-08-14T13:19:45.639Z,62.08
2023-08-14T13:22:17.302Z,63.68
2023-08-14T13:24:46.598Z,64.11
2023-08-14T13:27:14.932Z,64.22
2023-08-14T13:29:43.172Z,64.51
2023-08-14T13:32:11.533Z,64.83
2023-08-14T13:34:40.074Z,63.76
2023-08-14T13:37:08.405Z,64.66
2023-08-14T13:39:40.399Z,65.01
2023-08-14T13:42:10.531Z,66.05
2023-08-14T13:44:38.625Z,65.78
2023-08-14T13:47:07.468Z,65.32
2023-08-14T13:49:36.615Z,63.92
2023-08-14T13:52:05.032Z,64.14
2023-08-14T13:54:35.967Z,63.73
2023-08-14T13:57:05.667Z,62.27
2023-08-14T13:59:35.130Z,61.19
2023-08-14T14:02:04.112Z,59.38
2023-08-14T14:04:32.507Z,59.24
2023-08-14T14:07:00.730Z,59.13
2023-08-14T14:09:29.015Z,60.58
2023-08-14T14:11:57.458Z,59.05
2023-08-14T14:14:27.280Z,59.76
2023-08-14T14:16:59.098Z,59.77
2023-08-14T14:19:27.715Z,60.50
2023-08-14T14:21:58.127Z,60.45
2023-08-14T14:24:26.876Z,58.65
2023-08-14T14:26:54.863Z,58.48
2023-08-14T14:29:22.883Z,58.61
2023-08-14T14:31:52.475Z,58.00
2023-08-14T14:34:20.850Z,58.57
2023-08-14T14:36:49.034Z,58.11
2023-08-14T14:39:17.235Z,57.40
2023-08-14T14:41:45.509Z,57.47
2023-08-14T14:44:13.650Z,58.76
2023-08-14T14:46:43.866Z,58.15
2023-08-14T14:49:13.370Z,58.35
2023-08-14T14:51:41.389Z,55.68
2023-08-14T14:54:09.846Z,55.72
2023-08-14T14:56:37.835Z,54.88
2023-08-14T14:59:06.024Z,55.69
2023-08-14T15:01:34.329Z,54.83
2023-08-14T15:04:02.494Z,55.64
2023-08-14T15:06:32.100Z,56.20
2023-08-14T15:09:00.318Z,54.97
2023-08-14T15:11:28.410Z,54.95
2023-08-14T15:13:56.544Z,54.65
2023-08-14T15:16:25.092Z,53.51
2023-08-14T15:18:53.206Z,53.57
2023-08-14T15:21:21.302Z,54.50
2023-08-14T15:23:50.845Z,55.04
2023-08-14T15:26:18.922Z,54.68
2023-08-14T15:28:47.355Z,54.94
2023-08-14T15:31:15.441Z,54.82
2023-08-14T15:33:43.541Z,52.75
2023-08-14T15:36:11.561Z,53.50
2023-08-14T15:38:39.724Z,54.68
2023-08-14T15:41:11.376Z,54.89
2023-08-14T15:43:39.672Z,55.23
2023-08-14T15:46:08.633Z,54.96
2023-08-14T15:48:36.829Z,54.43
2023-08-14T15:51:05.188Z,55.05
2023-08-14T15:53:33.319Z,56.22
2023-08-14T15:56:01.459Z,57.48
2023-08-14T15:58:30.835Z,57.64
2023-08-14T16:00:59.777Z,57.00
2023-08-14T16:03:27.918Z,57.18
2023-08-14T16:05:58.743Z,57.22
2023-08-14T16:08:26.870Z,56.88
2023-08-14T16:10:54.954Z,57.55
2023-08-14T16:13:23.100Z,57.94
2023-08-14T16:15:52.599Z,58.05
2023-08-14T16:18:20.748Z,58.40
2023-08-14T16:20:48.907Z,58.61
2023-08-14T16:23:17.069Z,58.55
2023-08-14T16:25:45.093Z,58.97
2023-08-14T16:28:13.487Z,59.11
2023-08-14T16:30:42.340Z,59.73
2023-08-14T16:33:11.911Z,59.37
2023-08-14T16:35:40.381Z,59.86
2023-08-14T16:38:08.704Z,61.23
2023-08-14T16:40:42.648Z,61.46
2023-08-14T16:43:10.773Z,61.72
2023-08-14T16:45:39.478Z,61.31
2023-08-14T16:48:08.062Z,61.17
2023-08-14T16:50:39.701Z,62.20
2023-08-14T16:53:07.873Z,61.67
2023-08-14T16:55:36.251Z,61.89
2023-08-14T16:58:04.419Z,61.88
2023-08-14T17:00:32.730Z,61.47
2023-08-14T17:03:03.669Z,61.69
2023-08-14T17:05:32.683Z,62.28
2023-08-14T17:08:02.187Z,62.25
2023-08-14T17:10:30.303Z,62.20
2023-08-14T17:12:58.644Z,62.92
2023-08-14T17:15:26.685Z,63.55
2023-08-14T17:17:54.869Z,63.93
2023-08-14T17:20:22.960Z,64.01
2023-08-14T17:22:51.217Z,64.13
2023-08-14T17:25:20.941Z,64.36
2023-08-14T17:27:49.036Z,64.51
2023-08-14T17:30:17.265Z,64.47
2023-08-14T17:32:45.456Z,65.06
2023-08-14T17:35:13.861Z,65.68
2023-08-14T17:37:42.059Z,66.85
2023-08-14T17:40:11.490Z,67.12
2023-08-14T17:42:41.004Z,68.34
2023-08-14T17:45:09.812Z,69.13
2023-08-14T17:47:37.870Z,69.84
2023-08-14T17:50:07.405Z,70.13
2023-08-14T17:52:35.468Z,71.46
2023-08-14T17:55:03.605Z,72.05
2023-08-14T17:57:31.725Z,71.78
2023-08-14T18:00:01.276Z,70.97
2023-08-14T18:02:29.679Z,71.30
2023-08-14T18:04:58.069Z,71.67
2023-08-14T18:07:26.370Z,72.08
2023-08-14T18:09:57.051Z,72.05
2023-08-14T18:12:25.861Z,71.94
2023-08-14T18:14:54.165Z,72.68
2023-08-14T18:17:23.869Z,73.35
2023-08-14T18:19:52.020Z,73.76
2023-08-14T18:22:20.284Z,74.28
2023-08-14T18:24:48.446Z,74.18
2023-08-14T18:27:16.481Z,74.64
2023-08-14T18:29:44.347Z,74.85
2023-08-14T18:32:13.551Z,74.98
2023-08-14T18:34:44.005Z,75.64
2023-08-14T18:37:12.020Z,76.19
2023-08-14T18:39:40.041Z,76.18
2023-08-14T18:42:07.983Z,76.81
2023-08-14T18:44:35.982Z,76.88
2023-08-14T18:47:03.957Z,77.36
2023-08-14T18:49:33.107Z,77.71
2023-08-14T18:52:02.489Z,78.63
2023-08-14T18:54:30.838Z,78.95
2023-08-14T18:56:58.779Z,78.84
2023-08-14T18:59:27.042Z,78.55
2023-08-14T19:01:55.160Z,78.76
2023-08-14T19:04:40.931Z,78.81
2023-08-14T19:07:11.560Z,78.83
2023-08-14T19:09:39.745Z,78.94
2023-08-14T19:12:09.121Z,79.11
2023-08-14T19:14:37.446Z,79.34
2023-08-14T19:17:05.615Z,79.56
2023-08-14T19:19:33.901Z,79.69
2023-08-14T19:22:01.917Z,79.33
2023-08-14T19:24:31.528Z,79.77
2023-08-14T19:26:59.578Z,80.19
2023-08-14T19:29:27.686Z,80.45
2023-08-14T19:31:55.674Z,80.84
2023-08-14T19:34:23.854Z,80.96
2023-08-14T19:36:51.776Z,81.01
2023-08-14T19:39:19.932Z,81.61
2023-08-14T19:41:50.409Z,82.03
2023-08-14T19:44:18.928Z,82.06
2023-08-14T19:46:47.037Z,82.56
2023-08-14T19:49:15.547Z,82.70
2023-08-14T19:51:43.864Z,82.33
2023-08-14T19:54:11.815Z,82.76
2023-08-14T19:56:39.759Z,83.22
2023-08-14T19:59:09.522Z,83.08
2023-08-14T20:01:37.712Z,83.14
2023-08-14T20:04:09.428Z,83.44
2023-08-14T20:06:37.551Z,84.55
2023-08-14T20:09:06.429Z,84.51
2023-08-14T20:11:34.409Z,84.74
2023-08-14T20:14:02.412Z,84.80
2023-08-14T20:16:31.970Z,85.07
2023-08-14T20:19:00.234Z,84.97
2023-08-14T20:21:28.358Z,85.14
2023-08-14T20:23:56.333Z,85.35
2023-08-14T20:26:24.607Z,85.20
2023-08-14T20:28:54.772Z,84.55
2023-08-14T20:31:23.688Z,84.92
2023-08-14T20:33:53.681Z,85.47
2023-08-14T20:36:22.394Z,86.03
2023-08-14T20:38:50.709Z,85.91
2023-08-14T20:41:19.866Z,85.94
2023-08-14T20:43:47.972Z,86.59
2023-08-14T20:46:16.148Z,87.08
2023-08-14T20:48:44.278Z,86.90
2023-08-14T20:51:13.964Z,87.11
2023-08-14T20:53:41.976Z,87.38
2023-08-14T20:56:10.086Z,86.90
2023-08-14T20:58:38.187Z,87.74
2023-08-14T21:01:06.134Z,86.97
2023-08-14T21:03:34.215Z,87.53
2023-08-14T21:06:02.319Z,87.38
2023-08-14T21:08:31.936Z,86.90
2023-08-14T21:11:02.418Z,87.42
2023-08-14T21:13:30.764Z,87.69
2023-08-14T21:15:59.298Z,87.50
2023-08-14T21:18:27.720Z,87.33
2023-08-14T21:20:55.679Z,87.52
2023-08-14T21:23:23.615Z,87.58
2023-08-14T21:25:53.005Z,87.57
2023-08-14T21:28:21.175Z,87.96
2023-08-14T21:30:49.274Z,88.37
2023-08-14T21:33:17.269Z,88.41
2023-08-14T21:35:48.101Z,88.57
2023-08-14T21:38:16.101Z,88.52
2023-08-14T21:40:43.982Z,89.43
2023-08-14T21:43:13.726Z,89.23
2023-08-14T21:45:42.162Z,88.75
2023-08-14T21:48:10.201Z,88.48
2023-08-14T21:50:38.384Z,89.47
2023-08-14T21:53:06.445Z,90.18
2023-08-14T21:55:34.793Z,90.42
2023-08-14T21:58:02.725Z,90.83
2023-08-14T22:00:32.426Z,91.63
2023-08-14T22:03:00.360Z,91.19
2023-08-14T22:05:28.341Z,91.95
2023-08-14T22:07:56.319Z,92.08
2023-08-14T22:10:24.337Z,91.18
2023-08-14T22:12:52.269Z,90.85
2023-08-14T22:15:22.509Z,92.25
2023-08-14T22:17:54.203Z,92.20
2023-08-14T22:20:22.545Z,92.33
2023-08-14T22:22:50.521Z,91.86
2023-08-14T22:25:18.595Z,92.72
2023-08-14T22:27:46.674Z,92.31
2023-08-14T22:30:15.780Z,92.67
2023-08-14T22:32:43.728Z,92.57
2023-08-14T22:35:13.381Z,93.33
2023-08-14T22:37:41.749Z,93.08
2023-08-14T22:40:11.019Z,92.91
2023-08-14T22:42:39.057Z,92.97
2023-08-14T22:45:09.058Z,93.39
2023-08-14T22:47:37.161Z,93.51
2023-08-14T22:50:05.899Z,93.39
2023-08-14T22:52:35.182Z,93.14
2023-08-14T22:55:03.168Z,92.88
2023-08-14T22:57:31.141Z,91.75
2023-08-14T22:59:59.107Z,92.17
2023-08-14T23:02:27.094Z,91.71
2023-08-14T23:04:54.999Z,92.09
2023-08-14T23:07:23.251Z,91.47
2023-08-14T23:09:52.826Z,92.22
2023-08-14T23:12:20.878Z,91.97
2023-08-14T23:14:48.812Z,92.00
2023-08-14T23:17:16.836Z,91.86
2023-08-14T23:19:45.598Z,92.59
2023-08-14T23:22:13.630Z,92.52
2023-08-14T23:24:42.522Z,92.07
2023-08-14T23:27:11.964Z,92.74
2023-08-14T23:29:39.913Z,92.47
2023-08-14T23:32:08.172Z,92.50
2023-08-14T23:34:36.173Z,92.78
2023-08-14T23:37:04.184Z,92.69
2023-08-14T23:39:32.215Z,92.84
2023-08-14T23:42:00.223Z,92.68
2023-08-14T23:44:30.189Z,94.01
2023-08-14T23:46:58.526Z,94.13
2023-08-14T23:49:26.590Z,95.35
2023-08-14T23:51:54.519Z,95.58
2023-08-14T23:54:22.793Z,95.63
2023-08-14T23:56:50.804Z,95.16
2023-08-14T23:59:18.850Z,94.28
